Time,TemperatureF,DewpointF,PressureIn,WindDirection,WindDirectionDegrees,WindSpeedMPH,WindSpeedGustMPH,Humidity,HourlyPrecipIn,Conditions,Clouds,dailyrainin,SoftwareType,DateUTC
2013-01-09 00:05:00,29.7,26.0,30.03,WSW,241,6.0,6.0,86,0.00,,,0.00,Wunderground v.1.15,2013-01-09 06:05:00,
2013-01-09 00:10:00,30.1,26.4,30.04,West,280,6.0,6.0,86,0.00,,,0.00,Wunderground v.1.15,2013-01-09 06:10:00,
2013-01-09 00:20:00,31.1,27.1,30.05,West,272,9.0,13.0,85,0.00,,,0.00,Wunderground v.1.15,2013-01-09 06:20:00,
2013-01-09 00:30:00,32.1,28.1,30.05,West,262,9.0,13.0,85,0.00,,,0.00,Wunderground v.1.15,2013-01-09 06:30:00,
2013-01-09 00:40:00,32.6,28.9,30.04,WSW,240,8.0,11.0,86,0.00,,,0.00,Wunderground v.1.15,2013-01-09 06:40:00,
2013-01-09 00:45:00,32.8,29.4,30.04,WSW,249,7.0,11.0,87,0.00,,,0.00,Wunderground v.1.15,2013-01-09 06:45:00,
2013-01-09 00:55:00,32.9,29.7,30.04,West,278,6.0,7.0,88,0.00,,,0.00,Wunderground v.1.15,2013-01-09 06:55:00,
2013-01-09 01:05:00,32.8,29.6,30.04,WSW,251,6.0,6.0,88,0.00,,,0.00,Wunderground v.1.15,2013-01-09 07:05:00,
2013-01-09 01:15:00,32.6,29.2,30.04,WSW,239,5.0,7.0,87,0.00,,,0.00,Wunderground v.1.15,2013-01-09 07:15:00,
2013-01-09 01:20:00,32.5,29.1,30.04,WSW,247,5.0,7.0,87,0.00,,,0.00,Wunderground v.1.15,2013-01-09 07:20:00,
2013-01-09 01:30:00,32.0,28.6,30.05,West,262,6.0,6.0,87,0.00,,,0.00,Wunderground v.1.15,2013-01-09 07:30:00,
2013-01-09 01:40:00,31.4,28.3,30.05,WSW,255,7.0,8.0,88,0.00,,,0.00,Wunderground v.1.15,2013-01-09 07:40:00,
2013-01-09 01:45:00,31.4,28.3,30.05,WSW,251,7.0,10.0,88,0.00,,,0.00,Wunderground v.1.15,2013-01-09 07:45:00,
2013-01-09 01:55:00,30.7,27.3,30.05,WSW,246,7.0,8.0,87,0.00,,,0.00,Wunderground v.1.15,2013-01-09 07:55:00,
2013-01-09 02:05:00,30.3,27.2,30.05,WSW,244,7.0,9.0,88,0.00,,,0.00,Wunderground v.1.15,2013-01-09 08:05:00,
2013-01-09 02:15:00,30.5,27.4,30.06,SW,231,8.0,10.0,88,0.00,,,0.00,Wunderground v.1.15,2013-01-09 08:15:00,
2013-01-09 02:25:00,30.3,26.9,30.06,WSW,247,10.0,10.0,87,0.00,,,0.00,Wunderground v.1.15,2013-01-09 08:25:00,
2013-01-09 02:30:00,30.6,26.9,30.06,WSW,250,10.0,18.0,86,0.00,,,0.00,Wunderground v.1.15,2013-01-09 08:30:00,
2013-01-09 02:40:00,31.1,27.1,30.07,WSW,242,12.0,12.0,85,0.00,,,0.00,Wunderground v.1.15,2013-01-09 08:40:00,
2013-01-09 02:45:00,31.1,27.1,30.07,SW,232,11.0,14.0,85,0.00,,,0.00,Wunderground v.1.15,2013-01-09 08:45:00,
2013-01-09 02:55:00,31.0,27.0,30.08,SW,236,12.0,20.0,85,0.00,,,0.00,Wunderground v.1.15,2013-01-09 08:55:00,
2013-01-09 03:00:00,31.3,27.0,30.08,West,260,11.0,12.0,84,0.00,,,0.00,Wunderground v.1.15,2013-01-09 09:00:00,
2013-01-09 03:05:00,31.7,27.4,30.08,WNW,292,11.0,16.0,84,0.00,,,0.00,Wunderground v.1.15,2013-01-09 09:05:00,
2013-01-09 03:15:00,31.8,27.2,30.09,WSW,249,12.0,13.0,83,0.00,,,0.00,Wunderground v.1.15,2013-01-09 09:15:00,
2013-01-09 03:20:00,31.6,27.0,30.09,WSW,251,12.0,13.0,83,0.00,,,0.00,Wunderground v.1.15,2013-01-09 09:20:00,
2013-01-09 03:30:00,31.7,26.8,30.09,WNW,283,11.0,11.0,82,0.00,,,0.00,Wunderground v.1.15,2013-01-09 09:30:00,
2013-01-09 03:40:00,32.0,27.1,30.09,WSW,249,11.0,11.0,82,0.00,,,0.00,Wunderground v.1.15,2013-01-09 09:40:00,
2013-01-09 03:45:00,32.3,27.1,30.09,WSW,242,11.0,13.0,81,0.00,,,0.00,Wunderground v.1.15,2013-01-09 09:45:00,
2013-01-09 03:55:00,32.2,27.3,30.10,WNW,292,11.0,12.0,82,0.00,,,0.00,Wunderground v.1.15,2013-01-09 09:55:00,
2013-01-09 04:00:00,32.2,27.3,30.10,West,260,11.0,12.0,82,0.00,,,0.00,Wunderground v.1.15,2013-01-09 10:00:00,
2013-01-09 04:05:00,32.3,27.4,30.10,West,261,11.0,12.0,82,0.00,,,0.00,Wunderground v.1.15,2013-01-09 10:05:00,
2013-01-09 04:15:00,32.4,27.5,30.11,West,268,12.0,12.0,82,0.00,,,0.00,Wunderground v.1.15,2013-01-09 10:15:00,
2013-01-09 04:20:00,32.6,27.4,30.11,West,266,13.0,14.0,81,0.00,,,0.00,Wunderground v.1.15,2013-01-09 10:20:00,
2013-01-09 04:30:00,32.5,27.3,30.12,WSW,253,13.0,17.0,81,0.00,,,0.00,Wunderground v.1.15,2013-01-09 10:30:00,
2013-01-09 04:40:00,32.3,27.1,30.12,West,272,13.0,13.0,81,0.00,,,0.00,Wunderground v.1.15,2013-01-09 10:40:00,
2013-01-09 04:45:00,32.3,26.8,30.12,WSW,251,13.0,16.0,80,0.00,,,0.00,Wunderground v.1.15,2013-01-09 10:45:00,
2013-01-09 04:55:00,32.3,26.5,30.13,West,270,15.0,16.0,79,0.00,,,0.00,Wunderground v.1.15,2013-01-09 10:55:00,
2013-01-09 05:05:00,32.3,26.5,30.13,WSW,247,14.0,14.0,79,0.00,,,0.00,Wunderground v.1.15,2013-01-09 11:05:00,
2013-01-09 05:15:00,32.0,26.2,30.15,West,269,12.0,19.0,79,0.00,,,0.00,Wunderground v.1.15,2013-01-09 11:15:00,
2013-01-09 05:20:00,31.9,26.1,30.15,West,269,12.0,12.0,79,0.00,,,0.00,Wunderground v.1.15,2013-01-09 11:20:00,
2013-01-09 05:30:00,31.7,25.6,30.15,WSW,250,13.0,14.0,78,0.00,,,0.00,Wunderground v.1.15,2013-01-09 11:30:00,
2013-01-09 05:40:00,31.6,25.5,30.15,NW,307,13.0,13.0,78,0.00,,,0.00,Wunderground v.1.15,2013-01-09 11:40:00,
2013-01-09 05:50:00,31.5,25.4,30.16,WNW,303,12.0,12.0,78,0.00,,,0.00,Wunderground v.1.15,2013-01-09 11:50:00,
2013-01-09 05:55:00,31.4,25.3,30.16,West,277,12.0,12.0,78,0.00,,,0.00,Wunderground v.1.15,2013-01-09 11:55:00,
2013-01-09 06:05:00,31.4,24.7,30.17,NW,305,13.0,15.0,76,0.00,,,0.00,Wunderground v.1.15,2013-01-09 12:05:00,
2013-01-09 06:15:00,31.3,24.6,30.17,West,278,11.0,13.0,76,0.00,,,0.00,Wunderground v.1.15,2013-01-09 12:15:00,
2013-01-09 06:25:00,30.9,24.2,30.18,WNW,287,11.0,11.0,76,0.00,,,0.00,Wunderground v.1.15,2013-01-09 12:25:00,
2013-01-09 06:30:00,30.7,24.3,30.18,WNW,297,10.0,10.0,77,0.00,,,0.00,Wunderground v.1.15,2013-01-09 12:30:00,
2013-01-09 06:40:00,30.4,24.1,30.19,NW,312,11.0,13.0,77,0.00,,,0.00,Wunderground v.1.15,2013-01-09 12:40:00,
2013-01-09 06:50:00,30.1,23.8,30.20,WNW,287,11.0,17.0,77,0.00,,,0.00,Wunderground v.1.15,2013-01-09 12:50:00,
2013-01-09 06:55:00,30.0,23.7,30.20,West,272,11.0,17.0,77,0.00,,,0.00,Wunderground v.1.15,2013-01-09 12:55:00,
2013-01-09 07:05:00,29.8,23.5,30.20,WSW,258,10.0,11.0,77,0.00,,,0.00,Wunderground v.1.15,2013-01-09 13:05:00,
2013-01-09 07:15:00,29.7,23.1,30.20,West,272,11.0,18.0,76,0.00,,,0.00,Wunderground v.1.15,2013-01-09 13:15:00,
2013-01-09 07:25:00,29.6,23.0,30.21,West,276,11.0,13.0,76,0.00,,,0.00,Wunderground v.1.15,2013-01-09 13:25:00,
2013-01-09 07:30:00,29.4,22.8,30.22,West,277,10.0,11.0,76,0.00,,,0.00,Wunderground v.1.15,2013-01-09 13:30:00,
2013-01-09 07:40:00,29.1,22.5,30.22,NW,318,10.0,12.0,76,0.00,,,0.00,Wunderground v.1.15,2013-01-09 13:40:00,
2013-01-09 07:45:00,29.0,22.4,30.22,NW,313,10.0,12.0,76,0.00,,,0.00,Wunderground v.1.15,2013-01-09 13:45:00,
2013-01-09 07:55:00,28.7,22.1,30.23,WNW,286,10.0,11.0,76,0.00,,,0.00,Wunderground v.1.15,2013-01-09 13:55:00,
2013-01-09 08:00:00,28.6,22.0,30.23,WNW,303,9.0,9.0,76,0.00,,,0.00,Wunderground v.1.15,2013-01-09 14:00:00,
2013-01-09 08:05:00,28.5,21.9,30.24,West,278,9.0,10.0,76,0.00,,,0.00,Wunderground v.1.15,2013-01-09 14:05:00,
2013-01-09 08:15:00,28.2,21.9,30.24,WNW,290,10.0,10.0,77,0.00,,,0.00,Wunderground v.1.15,2013-01-09 14:15:00,
2013-01-09 08:20:00,28.1,21.8,30.25,WNW,292,9.0,12.0,77,0.00,,,0.00,Wunderground v.1.15,2013-01-09 14:20:00,
2013-01-09 08:30:00,27.9,21.6,30.25,WNW,298,7.0,7.0,77,0.00,,,0.00,Wunderground v.1.15,2013-01-09 14:30:00,
2013-01-09 08:40:00,27.6,21.6,30.26,WNW,291,7.0,7.0,78,0.00,,,0.00,Wunderground v.1.15,2013-01-09 14:40:00,
2013-01-09 08:50:00,27.4,21.4,30.27,West,272,6.0,6.0,78,0.00,,,0.00,Wunderground v.1.15,2013-01-09 14:50:00,
2013-01-09 08:55:00,27.4,21.4,30.27,WNW,287,6.0,7.0,78,0.00,,,0.00,Wunderground v.1.15,2013-01-09 14:55:00,
2013-01-09 09:05:00,27.4,21.4,30.27,NW,312,5.0,6.0,78,0.00,,,0.00,Wunderground v.1.15,2013-01-09 15:05:00,
2013-01-09 09:15:00,27.4,21.1,30.27,NW,315,5.0,6.0,77,0.00,,,0.00,Wunderground v.1.15,2013-01-09 15:15:00,
2013-01-09 09:25:00,27.4,21.1,30.27,NW,305,7.0,7.0,77,0.00,,,0.00,Wunderground v.1.15,2013-01-09 15:25:00,
2013-01-09 09:35:00,27.4,21.1,30.27,WNW,302,7.0,7.0,77,0.00,,,0.00,Wunderground v.1.15,2013-01-09 15:35:00,
2013-01-09 09:40:00,27.5,21.2,30.27,WNW,294,7.0,7.0,77,0.00,,,0.00,Wunderground v.1.15,2013-01-09 15:40:00,
2013-01-09 09:50:00,27.7,21.4,30.27,WNW,285,5.0,7.0,77,0.00,,,0.00,Wunderground v.1.15,2013-01-09 15:50:00,
2013-01-09 09:55:00,27.9,21.6,30.27,West,278,5.0,7.0,77,0.00,,,0.00,Wunderground v.1.15,2013-01-09 15:55:00,
2013-01-09 10:05:00,28.5,21.9,30.28,WNW,291,6.0,6.0,76,0.00,,,0.00,Wunderground v.1.15,2013-01-09 16:05:00,
2013-01-09 10:15:00,28.9,22.0,30.29,NW,320,4.0,8.0,75,0.00,,,0.00,Wunderground v.1.15,2013-01-09 16:15:00,
2013-01-09 10:25:00,29.2,22.3,30.29,WNW,290,5.0,6.0,75,0.00,,,0.00,Wunderground v.1.15,2013-01-09 16:25:00,
2013-01-09 10:30:00,29.3,22.4,30.28,NW,306,4.0,6.0,75,0.00,,,0.00,Wunderground v.1.15,2013-01-09 16:30:00,
2013-01-09 10:40:00,29.4,22.1,30.29,WNW,298,4.0,4.0,74,0.00,,,0.00,Wunderground v.1.15,2013-01-09 16:40:00,
2013-01-09 10:45:00,29.6,22.3,30.29,WNW,297,4.0,4.0,74,0.00,,,0.00,Wunderground v.1.15,2013-01-09 16:45:00,
2013-01-09 10:55:00,30.0,22.1,30.30,WNW,294,5.0,6.0,72,0.00,,,0.00,Wunderground v.1.15,2013-01-09 16:55:00,
2013-01-09 11:00:00,30.0,22.1,30.31,WNW,293,5.0,7.0,72,0.00,,,0.00,Wunderground v.1.15,2013-01-09 17:00:00,
2013-01-09 11:05:00,30.1,21.8,30.32,WNW,291,5.0,7.0,71,0.00,,,0.00,Wunderground v.1.15,2013-01-09 17:05:00,
2013-01-09 11:15:00,30.0,21.7,30.34,West,268,6.0,8.0,71,0.00,,,0.00,Wunderground v.1.15,2013-01-09 17:15:00,
2013-01-09 11:20:00,30.1,21.8,30.34,SW,225,6.0,8.0,71,0.00,,,0.00,Wunderground v.1.15,2013-01-09 17:20:00,
2013-01-09 11:30:00,29.7,22.7,30.35,WSW,237,7.0,7.0,75,0.00,,,0.00,Wunderground v.1.15,2013-01-09 17:30:00,
2013-01-09 11:35:00,29.6,22.6,30.35,WSW,237,7.0,8.0,75,0.00,,,0.00,Wunderground v.1.15,2013-01-09 17:35:00,
2013-01-09 11:45:00,28.8,22.2,30.36,WSW,239,9.0,10.0,76,0.00,,,0.00,Wunderground v.1.15,2013-01-09 17:45:00,
2013-01-09 11:50:00,28.8,22.5,30.37,WSW,242,10.0,10.0,77,0.00,,,0.00,Wunderground v.1.15,2013-01-09 17:50:00,
2013-01-09 12:00:00,28.9,22.6,30.38,SW,234,10.0,10.0,77,0.00,,,0.00,Wunderground v.1.15,2013-01-09 18:00:00,
2013-01-09 12:05:00,29.0,22.7,30.38,WSW,239,10.0,11.0,77,0.00,,,0.00,Wunderground v.1.15,2013-01-09 18:05:00,
2013-01-09 12:15:00,29.4,22.8,30.38,West,264,9.0,10.0,76,0.00,,,0.00,Wunderground v.1.15,2013-01-09 18:15:00,
2013-01-09 12:25:00,29.5,22.6,30.38,WSW,251,9.0,9.0,75,0.00,,,0.00,Wunderground v.1.15,2013-01-09 18:25:00,
2013-01-09 12:35:00,29.9,22.9,30.39,West,262,8.0,10.0,75,0.00,,,0.00,Wunderground v.1.15,2013-01-09 18:35:00,
2013-01-09 12:40:00,29.9,22.9,30.39,West,274,9.0,9.0,75,0.00,,,0.00,Wunderground v.1.15,2013-01-09 18:40:00,
2013-01-09 12:45:00,29.8,22.8,30.39,SW,224,9.0,9.0,75,0.00,,,0.00,Wunderground v.1.15,2013-01-09 18:45:00,
2013-01-09 12:50:00,30.0,23.0,30.39,West,274,9.0,9.0,75,0.00,,,0.00,Wunderground v.1.15,2013-01-09 18:50:00,
2013-01-09 12:55:00,30.1,22.8,30.39,WSW,255,9.0,10.0,74,0.00,,,0.00,Wunderground v.1.15,2013-01-09 18:55:00,
2013-01-09 13:05:00,30.2,22.9,30.40,West,260,10.0,10.0,74,0.00,,,0.00,Wunderground v.1.15,2013-01-09 19:05:00,
2013-01-09 13:15:00,30.4,23.1,30.40,SW,229,9.0,9.0,74,0.00,,,0.00,Wunderground v.1.15,2013-01-09 19:15:00,
2013-01-09 13:25:00,30.6,23.0,30.40,WNW,289,8.0,8.0,73,0.00,,,0.00,Wunderground v.1.15,2013-01-09 19:25:00,
2013-01-09 13:30:00,30.6,23.0,30.40,West,272,9.0,13.0,73,0.00,,,0.00,Wunderground v.1.15,2013-01-09 19:30:00,
2013-01-09 13:40:00,30.8,23.2,30.40,West,260,8.0,8.0,73,0.00,,,0.00,Wunderground v.1.15,2013-01-09 19:40:00,
2013-01-09 13:45:00,31.0,23.0,30.41,West,270,8.0,10.0,72,0.00,,,0.00,Wunderground v.1.15,2013-01-09 19:45:00,
2013-01-09 13:55:00,31.2,23.5,30.41,WSW,253,7.0,8.0,73,0.00,,,0.00,Wunderground v.1.15,2013-01-09 19:55:00,
2013-01-09 14:00:00,31.2,23.5,30.42,WSW,254,8.0,9.0,73,0.00,,,0.00,Wunderground v.1.15,2013-01-09 20:00:00,
2013-01-09 14:10:00,31.4,23.7,30.42,West,261,8.0,8.0,73,0.00,,,0.00,Wunderground v.1.15,2013-01-09 20:10:00,
2013-01-09 14:15:00,31.5,23.8,30.42,WSW,245,7.0,9.0,73,0.00,,,0.00,Wunderground v.1.15,2013-01-09 20:15:00,
2013-01-09 14:25:00,31.5,23.8,30.43,WSW,239,7.0,7.0,73,0.00,,,0.00,Wunderground v.1.15,2013-01-09 20:25:00,
2013-01-09 14:30:00,31.5,23.8,30.43,WSW,242,7.0,7.0,73,0.00,,,0.00,Wunderground v.1.15,2013-01-09 20:30:00,
2013-01-09 14:40:00,31.4,24.1,30.43,WSW,249,7.0,7.0,74,0.00,,,0.00,Wunderground v.1.15,2013-01-09 20:40:00,
2013-01-09 14:45:00,31.4,23.7,30.43,WSW,256,7.0,7.0,73,0.00,,,0.00,Wunderground v.1.15,2013-01-09 20:45:00,
2013-01-09 14:55:00,31.3,24.0,30.44,WSW,239,8.0,8.0,74,0.00,,,0.00,Wunderground v.1.15,2013-01-09 20:55:00,
2013-01-09 15:00:00,31.3,24.0,30.44,SW,232,8.0,8.0,74,0.00,,,0.00,Wunderground v.1.15,2013-01-09 21:00:00,
2013-01-09 15:05:00,31.4,24.4,30.44,WSW,242,7.0,8.0,75,0.00,,,0.00,Wunderground v.1.15,2013-01-09 21:05:00,
2013-01-09 15:15:00,31.6,24.6,30.44,SW,236,4.0,6.0,75,0.00,,,0.00,Wunderground v.1.15,2013-01-09 21:15:00,
2013-01-09 15:25:00,31.5,24.5,30.44,WSW,257,6.0,7.0,75,0.00,,,0.00,Wunderground v.1.15,2013-01-09 21:25:00,
2013-01-09 15:35:00,31.5,24.5,30.44,SW,234,5.0,5.0,75,0.00,,,0.00,Wunderground v.1.15,2013-01-09 21:35:00,
2013-01-09 15:40:00,31.5,24.5,30.44,WSW,239,5.0,6.0,75,0.00,,,0.00,Wunderground v.1.15,2013-01-09 21:40:00,
2013-01-09 15:50:00,31.3,24.3,30.44,SSW,210,4.0,4.0,75,0.00,,,0.00,Wunderground v.1.15,2013-01-09 21:50:00,
2013-01-09 16:00:00,31.1,24.1,30.45,SW,220,5.0,6.0,75,0.00,,,0.00,Wunderground v.1.15,2013-01-09 22:00:00,
2013-01-09 16:05:00,30.8,23.8,30.44,SSW,201,5.0,6.0,75,0.00,,,0.00,Wunderground v.1.15,2013-01-09 22:05:00,
2013-01-09 16:15:00,30.6,23.9,30.44,SW,217,4.0,4.0,76,0.00,,,0.00,Wunderground v.1.15,2013-01-09 22:15:00,
2013-01-09 16:25:00,30.7,23.7,30.43,SSW,197,2.0,3.0,75,0.00,,,0.00,Wunderground v.1.15,2013-01-09 22:25:00,
2013-01-09 16:30:00,30.5,23.5,30.42,SSW,194,2.0,2.0,75,0.00,,,0.00,Wunderground v.1.15,2013-01-09 22:30:00,
2013-01-09 16:40:00,30.5,23.8,30.42,SSW,194,1.0,1.0,76,0.00,,,0.00,Wunderground v.1.15,2013-01-09 22:40:00,
2013-01-09 16:45:00,30.4,23.7,30.41,SSW,194,0.0,1.0,76,0.00,,,0.00,Wunderground v.1.15,2013-01-09 22:45:00,
2013-01-09 16:55:00,30.3,23.6,30.42,SSW,194,0.0,0.0,76,0.00,,,0.00,Wunderground v.1.15,2013-01-09 22:55:00,
2013-01-09 17:00:00,30.2,23.5,30.42,SSW,194,0.0,0.0,76,0.00,,,0.00,Wunderground v.1.15,2013-01-09 23:00:00,
2013-01-09 17:05:00,29.9,23.3,30.42,SSW,194,0.0,0.0,76,0.00,,,0.00,Wunderground v.1.15,2013-01-09 23:05:00,
2013-01-09 17:15:00,29.7,23.4,30.42,SSW,195,0.0,0.0,77,0.00,,,0.00,Wunderground v.1.15,2013-01-09 23:15:00,
2013-01-09 17:20:00,29.6,23.3,30.41,SSW,194,0.0,0.0,77,0.00,,,0.00,Wunderground v.1.15,2013-01-09 23:20:00,
2013-01-09 17:30:00,28.1,22.4,30.41,SE,145,0.0,1.0,79,0.00,,,0.00,Wunderground v.1.15,2013-01-09 23:30:00,
2013-01-09 17:35:00,28.0,22.6,30.41,SE,145,0.0,1.0,80,0.00,,,0.00,Wunderground v.1.15,2013-01-09 23:35:00,
2013-01-09 17:45:00,28.4,23.0,30.41,SE,133,1.0,2.0,80,0.00,,,0.00,Wunderground v.1.15,2013-01-09 23:45:00,
2013-01-09 17:50:00,28.2,22.8,30.41,SE,133,1.0,1.0,80,0.00,,,0.00,Wunderground v.1.15,2013-01-09 23:50:00,
2013-01-09 18:00:00,27.8,23.0,30.40,SE,125,1.0,1.0,82,0.00,,,0.00,Wunderground v.1.15,2013-01-10 00:00:00,
2013-01-09 18:05:00,27.9,22.8,30.39,East,96,1.0,1.0,81,0.00,,,0.00,Wunderground v.1.15,2013-01-10 00:05:00,
2013-01-09 18:15:00,27.6,22.5,30.39,ESE,112,1.0,1.0,81,0.00,,,0.00,Wunderground v.1.15,2013-01-10 00:15:00,
2013-01-09 18:20:00,27.7,22.9,30.39,SE,128,1.0,3.0,82,0.00,,,0.00,Wunderground v.1.15,2013-01-10 00:20:00,
2013-01-09 18:30:00,27.5,22.7,30.39,SE,133,2.0,2.0,82,0.00,,,0.00,Wunderground v.1.15,2013-01-10 00:30:00,
2013-01-09 18:35:00,27.5,22.4,30.39,SE,132,3.0,3.0,81,0.00,,,0.00,Wunderground v.1.15,2013-01-10 00:35:00,
2013-01-09 18:45:00,27.0,22.2,30.39,SE,133,2.0,3.0,82,0.00,,,0.00,Wunderground v.1.15,2013-01-10 00:45:00,
2013-01-09 18:50:00,27.0,22.2,30.39,SE,131,2.0,3.0,82,0.00,,,0.00,Wunderground v.1.15,2013-01-10 00:50:00,
2013-01-09 19:00:00,26.7,21.9,30.40,SSE,154,1.0,1.0,82,0.00,,,0.00,Wunderground v.1.15,2013-01-10 01:00:00,
2013-01-09 19:05:00,26.6,22.1,30.39,SE,127,1.0,1.0,83,0.00,,,0.00,Wunderground v.1.15,2013-01-10 01:05:00,
2013-01-09 19:15:00,26.5,22.0,30.40,SSE,151,2.0,3.0,83,0.00,,,0.00,Wunderground v.1.15,2013-01-10 01:15:00,
2013-01-09 19:25:00,26.3,21.8,30.40,SE,141,1.0,2.0,83,0.00,,,0.00,Wunderground v.1.15,2013-01-10 01:25:00,
2013-01-09 19:35:00,26.3,22.1,30.40,SSE,154,1.0,2.0,84,0.00,,,0.00,Wunderground v.1.15,2013-01-10 01:35:00,
2013-01-09 19:40:00,25.9,21.7,30.40,SSE,167,1.0,1.0,84,0.00,,,0.00,Wunderground v.1.15,2013-01-10 01:40:00,
2013-01-09 19:50:00,25.5,21.6,30.40,SSE,158,1.0,1.0,85,0.00,,,0.00,Wunderground v.1.15,2013-01-10 01:50:00,
2013-01-09 20:00:00,25.3,21.7,30.39,SSE,153,1.0,1.0,86,0.00,,,0.00,Wunderground v.1.15,2013-01-10 02:00:00,
2013-01-09 20:05:00,25.4,21.8,30.39,SSE,149,1.0,1.0,86,0.00,,,0.00,Wunderground v.1.15,2013-01-10 02:05:00,
2013-01-09 20:15:00,26.1,22.8,30.39,SE,143,1.0,2.0,87,0.00,,,0.00,Wunderground v.1.15,2013-01-10 02:15:00,
2013-01-09 20:20:00,26.6,23.0,30.39,SSE,162,1.0,1.0,86,0.00,,,0.00,Wunderground v.1.15,2013-01-10 02:20:00,
2013-01-09 20:30:00,26.7,23.1,30.39,SE,142,1.0,1.0,86,0.00,,,0.00,Wunderground v.1.15,2013-01-10 02:30:00,
2013-01-09 20:35:00,26.7,22.8,30.38,SE,134,2.0,3.0,85,0.00,,,0.00,Wunderground v.1.15,2013-01-10 02:35:00,
2013-01-09 20:45:00,27.0,23.1,30.38,SE,141,2.0,2.0,85,0.00,,,0.00,Wunderground v.1.15,2013-01-10 02:45:00,
2013-01-09 20:50:00,27.0,23.1,30.38,SSE,149,1.0,1.0,85,0.00,,,0.00,Wunderground v.1.15,2013-01-10 02:50:00,
2013-01-09 21:00:00,26.7,22.8,30.38,SSE,148,1.0,1.0,85,0.00,,,0.00,Wunderground v.1.15,2013-01-10 03:00:00,
2013-01-09 21:05:00,26.7,23.1,30.38,SSE,152,1.0,1.0,86,0.00,,,0.00,Wunderground v.1.15,2013-01-10 03:05:00,
2013-01-09 21:15:00,26.9,23.3,30.38,SSE,164,2.0,2.0,86,0.00,,,0.00,Wunderground v.1.15,2013-01-10 03:15:00,
2013-01-09 21:20:00,27.0,23.1,30.38,SSE,147,1.0,2.0,85,0.00,,,0.00,Wunderground v.1.15,2013-01-10 03:20:00,
2013-01-09 21:30:00,27.0,23.4,30.38,SE,135,2.0,3.0,86,0.00,,,0.00,Wunderground v.1.15,2013-01-10 03:30:00,
2013-01-09 21:35:00,27.1,23.2,30.37,SE,137,3.0,3.0,85,0.00,,,0.00,Wunderground v.1.15,2013-01-10 03:35:00,
2013-01-09 21:45:00,27.0,23.4,30.37,SE,130,3.0,5.0,86,0.00,,,0.00,Wunderground v.1.15,2013-01-10 03:45:00,
2013-01-09 21:50:00,26.9,23.0,30.36,SE,139,3.0,3.0,85,0.00,,,0.00,Wunderground v.1.15,2013-01-10 03:50:00,
2013-01-09 22:00:00,26.6,23.0,30.36,SE,126,3.0,3.0,86,0.00,,,0.00,Wunderground v.1.15,2013-01-10 04:00:00,
2013-01-09 22:05:00,26.6,23.0,30.35,SE,135,3.0,5.0,86,0.00,,,0.00,Wunderground v.1.15,2013-01-10 04:05:00,
2013-01-09 22:15:00,26.6,23.3,30.35,SE,134,4.0,5.0,87,0.00,,,0.00,Wunderground v.1.15,2013-01-10 04:15:00,
2013-01-09 22:20:00,26.7,23.4,30.35,SE,130,4.0,4.0,87,0.00,,,0.00,Wunderground v.1.15,2013-01-10 04:20:00,
2013-01-09 22:30:00,26.7,23.4,30.35,SE,139,4.0,6.0,87,0.00,,,0.00,Wunderground v.1.15,2013-01-10 04:30:00,
2013-01-09 22:40:00,26.9,23.5,30.35,SE,129,5.0,6.0,87,0.00,,,0.00,Wunderground v.1.15,2013-01-10 04:40:00,
2013-01-09 22:45:00,26.9,23.5,30.35,SE,134,5.0,6.0,87,0.00,,,0.00,Wunderground v.1.15,2013-01-10 04:45:00,
2013-01-09 22:55:00,26.9,23.5,30.35,SE,138,4.0,5.0,87,0.00,,,0.00,Wunderground v.1.15,2013-01-10 04:55:00,
2013-01-09 23:00:00,26.7,23.4,30.35,SSW,193,4.0,7.0,87,0.00,,,0.00,Wunderground v.1.15,2013-01-10 05:00:00,
2013-01-09 23:05:00,26.6,23.3,30.36,SSE,152,4.0,7.0,87,0.00,,,0.00,Wunderground v.1.15,2013-01-10 05:05:00,
2013-01-09 23:10:00,26.7,23.4,30.35,SE,129,3.0,4.0,87,0.00,,,0.00,Wunderground v.1.15,2013-01-10 05:10:00,
2013-01-09 23:20:00,26.8,23.4,30.34,SE,139,2.0,3.0,87,0.00,,,0.00,Wunderground v.1.15,2013-01-10 05:20:00,
2013-01-09 23:30:00,26.9,23.5,30.35,SE,142,2.0,2.0,87,0.00,,,0.00,Wunderground v.1.15,2013-01-10 05:30:00,
2013-01-09 23:35:00,26.9,23.5,30.35,ESE,122,2.0,3.0,87,0.00,,,0.00,Wunderground v.1.15,2013-01-10 05:35:00,
2013-01-09 23:45:00,27.0,23.6,30.34,SE,139,2.0,2.0,87,0.00,,,0.00,Wunderground v.1.15,2013-01-10 05:45:00,
2013-01-09 23:55:00,27.0,23.9,30.35,SE,138,1.0,2.0,88,0.00,,,0.00,Wunderground v.1.15,2013-01-10 05:55:00,